Time;durP1;ratioP1;P1;durP2;ratioP2;P2;SDS_P1;SDS_P2;PMS_P1;PMS_P2;Temp;Humidity;BMP_temperature;BMP_pressure;BME280_temperature;BME280_humidity;BME280_pressure;Samples;Min_cycle;Max_cycle;Signal;HPM_P1;HPM_P2
2022/03/07 00:01:07;;;;;;;8.67;6.87;;;;;;;1.81;nan;94749.63;5046417;28;21001;-72
2022/03/07 00:03:34;;;;;;;9.23;7.27;;;;;;;1.75;nan;94758.81;5048713;28;20210;-71
2022/03/07 00:06:01;;;;;;;11.77;7.37;;;;;;;1.71;nan;94753.03;5047559;28;20199;-70
2022/03/07 00:08:29;;;;;;;14.57;7.60;;;;;;;1.66;nan;94760.56;5048279;28;20202;-70
2022/03/07 00:10:58;;;;;;;9.40;6.10;;;;;;;1.58;nan;94758.91;5047900;28;20297;-71
2022/03/07 00:13:26;;;;;;;12.63;7.20;;;;;;;1.53;nan;94760.59;5046450;28;20234;-71
2022/03/07 00:15:52;;;;;;;8.33;6.37;;;;;;;1.47;nan;94766.47;5048203;28;20293;-71
2022/03/07 00:18:20;;;;;;;9.73;6.43;;;;;;;1.51;nan;94758.09;5045926;28;20286;-71
2022/03/07 00:20:47;;;;;;;13.17;7.93;;;;;;;1.73;nan;94741.31;5048488;28;20219;-71
2022/03/07 00:23:15;;;;;;;15.07;7.43;;;;;;;1.77;nan;94742.94;5047587;28;20681;-71
2022/03/07 00:25:43;;;;;;;11.70;6.50;;;;;;;1.65;nan;94723.81;5046945;28;20207;-72
2022/03/07 00:28:10;;;;;;;11.00;7.20;;;;;;;1.68;nan;94743.00;5048282;28;20209;-72
2022/03/07 00:30:37;;;;;;;7.77;6.87;;;;;;;1.33;nan;94746.47;5048197;28;20206;-72
2022/03/07 00:33:04;;;;;;;10.17;6.67;;;;;;;1.35;nan;94739.78;5047305;28;20600;-70
2022/03/07 00:35:30;;;;;;;13.30;7.40;;;;;;;1.27;nan;94736.47;5047748;28;20198;-70
2022/03/07 00:37:57;;;;;;;12.20;6.97;;;;;;;1.21;nan;94739.03;5047795;28;20725;-69
2022/03/07 00:40:24;;;;;;;10.20;6.90;;;;;;;1.28;nan;94733.13;5047438;28;20206;-70
2022/03/07 00:42:52;;;;;;;10.20;7.40;;;;;;;1.34;nan;94740.63;5047964;28;20210;-70
2022/03/07 00:45:19;;;;;;;12.07;7.60;;;;;;;1.31;nan;94740.66;5048130;28;20214;-71
2022/03/07 00:47:46;;;;;;;13.37;8.40;;;;;;;1.51;nan;94734.72;5047451;28;20213;-71
2022/03/07 00:50:13;;;;;;;12.70;7.33;;;;;;;1.72;nan;94734.66;5048458;28;20240;-70
2022/03/07 00:52:40;;;;;;;9.07;6.73;;;;;;;1.67;nan;94741.34;5047688;28;20666;-70
2022/03/07 00:55:08;;;;;;;11.43;8.10;;;;;;;1.61;nan;94738.84;5047586;28;20233;-69
2022/03/07 00:57:35;;;;;;;10.33;7.30;;;;;;;1.83;nan;94737.06;5046817;28;20202;-70
2022/03/07 01:00:05;;;;;;;12.23;7.97;;;;;;;1.88;nan;94735.38;5047441;28;20202;-70
2022/03/07 01:02:32;;;;;;;8.63;7.17;;;;;;;1.88;nan;94733.72;5047317;28;20268;-73
2022/03/07 01:05:00;;;;;;;9.27;6.87;;;;;;;1.94;nan;94733.69;5047046;28;20202;-70
2022/03/07 01:07:27;;;;;;;8.50;7.47;;;;;;;1.89;nan;94732.88;5046570;28;20281;-69
2022/03/07 01:09:54;;;;;;;8.27;6.70;;;;;;;1.82;nan;94731.25;5047590;28;20202;-69
2022/03/07 01:12:21;;;;;;;11.30;7.00;;;;;;;1.77;nan;94732.09;5047809;28;20263;-72
2022/03/07 01:14:48;;;;;;;10.40;7.60;;;;;;;1.68;nan;94717.97;5048072;28;20234;-71
2022/03/07 01:17:16;;;;;;;6.90;6.13;;;;;;;1.66;nan;94719.63;5046773;28;20198;-71
2022/03/07 01:19:43;;;;;;;10.37;7.77;;;;;;;1.80;nan;94707.88;5046339;28;20225;-70
2022/03/07 01:22:09;;;;;;;7.97;5.87;;;;;;;1.63;nan;94707.13;5047245;28;20252;-70
2022/03/07 01:24:37;;;;;;;8.10;6.37;;;;;;;1.77;nan;94712.06;5047830;28;20203;-71
2022/03/07 01:27:04;;;;;;;7.87;6.03;;;;;;;1.66;nan;94702.09;5050521;28;20233;-71
2022/03/07 01:29:31;;;;;;;8.53;6.93;;;;;;;1.65;nan;94705.44;5050697;28;20210;-71
2022/03/07 01:31:58;;;;;;;8.23;6.03;;;;;;;1.80;nan;94714.53;5050829;28;20745;-72
2022/03/07 01:34:26;;;;;;;6.43;5.37;;;;;;;1.80;nan;94702.03;5050741;28;20245;-71
2022/03/07 01:36:53;;;;;;;8.07;7.37;;;;;;;1.65;nan;94698.78;5051456;28;20669;-70
2022/03/07 01:39:19;;;;;;;5.67;5.17;;;;;;;1.64;nan;94702.13;5051590;28;20216;-71
2022/03/07 01:41:46;;;;;;;7.70;6.03;;;;;;;1.75;nan;94701.22;5051629;28;20291;-71
2022/03/07 01:44:17;;;;;;;6.93;6.17;;;;;;;1.51;nan;94704.66;5050311;28;20327;-70
2022/03/07 01:46:44;;;;;;;6.70;6.00;;;;;;;1.60;nan;94705.47;5050756;28;20670;-72
2022/03/07 01:49:11;;;;;;;7.00;6.30;;;;;;;1.67;nan;94706.28;5049876;28;20238;-70
2022/03/07 01:51:40;;;;;;;5.33;4.83;;;;;;;1.69;nan;94700.44;5051624;28;20609;-72
2022/03/07 01:54:09;;;;;;;6.33;5.77;;;;;;;1.49;nan;94698.84;5050600;28;20239;-71
2022/03/07 01:56:36;;;;;;;5.53;5.03;;;;;;;1.56;nan;94702.97;5049891;28;20260;-72
2022/03/07 01:59:03;;;;;;;6.90;6.20;;;;;;;1.64;nan;94701.28;5051442;28;20194;-70
2022/03/07 02:01:30;;;;;;;6.50;5.53;;;;;;;1.79;nan;94701.19;5049886;28;20194;-71
2022/03/07 02:03:57;;;;;;;7.33;5.73;;;;;;;1.64;nan;94701.28;5050621;28;20198;-71
2022/03/07 02:06:24;;;;;;;6.17;5.57;;;;;;;1.43;nan;94696.38;5051167;28;20742;-71
2022/03/07 02:08:53;;;;;;;5.60;5.10;;;;;;;1.49;nan;94696.34;5050583;28;20198;-70
2022/03/07 02:11:20;;;;;;;5.97;5.47;;;;;;;1.39;nan;94694.72;5051058;28;20547;-71
2022/03/07 02:13:47;;;;;;;6.33;5.73;;;;;;;1.54;nan;94702.16;5050520;28;20628;-71
2022/03/07 02:16:16;;;;;;;6.83;5.97;;;;;;;1.50;nan;94698.84;5049971;28;20206;-71
2022/03/07 02:18:43;;;;;;;5.20;4.67;;;;;;;1.46;nan;94699.72;5050677;28;20198;-71
2022/03/07 02:21:14;;;;;;;5.73;5.23;;;;;;;1.50;nan;94708.00;5049853;28;20630;-72
2022/03/07 02:23:43;;;;;;;6.07;5.57;;;;;;;1.62;nan;94698.78;5050194;28;20748;-72
2022/03/07 02:26:11;;;;;;;6.80;5.60;;;;;;;1.70;nan;94706.28;5050435;28;20252;-72
2022/03/07 02:28:39;;;;;;;5.87;5.13;;;;;;;1.71;nan;94707.94;5050647;28;20206;-71
2022/03/07 02:31:06;;;;;;;7.30;5.57;;;;;;;1.65;nan;94713.81;5049551;28;20229;-71
2022/03/07 02:33:33;;;;;;;7.17;5.30;;;;;;;1.40;nan;94711.41;5050493;28;20198;-72
2022/03/07 02:36:00;;;;;;;5.53;4.63;;;;;;;1.30;nan;94710.59;5048667;28;20222;-70
2022/03/07 02:38:27;;;;;;;5.93;5.37;;;;;;;1.38;nan;94718.09;5049447;28;20202;-72
2022/03/07 02:40:55;;;;;;;5.27;4.87;;;;;;;1.39;nan;94709.75;5049918;28;20618;-70
2022/03/07 02:43:22;;;;;;;5.67;5.17;;;;;;;1.50;nan;94708.00;5049410;28;20198;-69
2022/03/07 02:45:51;;;;;;;5.77;5.17;;;;;;;1.55;nan;94701.31;5049777;28;20198;-70
2022/03/07 02:48:18;;;;;;;6.27;5.50;;;;;;;1.65;nan;94702.94;5048984;28;20302;-69
2022/03/07 02:50:45;;;;;;;5.93;5.43;;;;;;;1.41;nan;94715.59;5051566;28;20238;-70
2022/03/07 02:53:12;;;;;;;5.97;5.37;;;;;;;1.48;nan;94717.22;5051557;28;20670;-71
2022/03/07 02:55:39;;;;;;;5.97;4.87;;;;;;;1.57;nan;94705.47;5051731;28;20981;-71
2022/03/07 02:58:07;;;;;;;6.00;5.47;;;;;;;1.64;nan;94716.31;5051927;28;20206;-70
2022/03/07 03:00:34;;;;;;;5.63;5.10;;;;;;;1.66;nan;94707.13;5052645;28;20202;-69
2022/03/07 03:03:01;;;;;;;5.40;4.70;;;;;;;1.73;nan;94716.28;5052408;28;20742;-70
2022/03/07 03:05:28;;;;;;;8.80;4.63;;;;;;;1.80;nan;94707.88;5049774;28;20215;-70
2022/03/07 03:07:55;;;;;;;8.33;4.73;;;;;;;1.76;nan;94711.22;5050077;28;20747;-70
2022/03/07 03:10:22;;;;;;;5.97;5.37;;;;;;;1.71;nan;94710.44;5049432;28;20320;-72
2022/03/07 03:12:49;;;;;;;6.07;4.73;;;;;;;1.78;nan;94718.72;5050082;28;20201;-71
2022/03/07 03:15:18;;;;;;;6.07;5.50;;;;;;;1.96;nan;94713.63;5050800;28;20225;-71
2022/03/07 03:17:46;;;;;;;6.63;6.03;;;;;;;2.16;nan;94716.84;5050563;28;20689;-70
2022/03/07 03:20:15;;;;;;;8.20;5.97;;;;;;;1.97;nan;94717.81;5050676;28;21373;-72
2022/03/07 03:22:43;;;;;;;6.77;6.17;;;;;;;1.87;nan;94721.19;5051446;28;20658;-70
2022/03/07 03:25:12;;;;;;;6.53;5.83;;;;;;;1.88;nan;94723.69;5050512;28;20202;-71
2022/03/07 03:27:39;;;;;;;6.13;5.53;;;;;;;1.82;nan;94721.22;5050410;28;20203;-70
2022/03/07 03:30:08;;;;;;;6.30;5.53;;;;;;;1.64;nan;94724.66;5051579;28;20873;-70
2022/03/07 03:32:36;;;;;;;5.57;5.00;;;;;;;1.82;nan;94725.38;5052024;28;20214;-71
2022/03/07 03:35:03;;;;;;;6.47;5.83;;;;;;;1.80;nan;94720.38;5050929;28;20237;-70
2022/03/07 03:37:30;;;;;;;6.70;6.10;;;;;;;1.68;nan;94722.97;5048902;28;20206;-71
2022/03/07 03:39:57;;;;;;;6.07;5.53;;;;;;;1.53;nan;94723.84;5049938;28;20210;-70
2022/03/07 03:42:23;;;;;;;6.07;5.47;;;;;;;1.81;nan;94714.53;5049356;28;20207;-70
2022/03/07 03:44:51;;;;;;;6.23;5.47;;;;;;;1.72;nan;94717.13;5049878;28;20671;-71
2022/03/07 03:47:18;;;;;;;7.00;6.30;;;;;;;1.72;nan;94719.63;5048822;28;20731;-70
2022/03/07 03:49:46;;;;;;;6.67;5.30;;;;;;;1.75;nan;94728.75;5048478;28;20222;-71
2022/03/07 03:52:12;;;;;;;6.20;5.60;;;;;;;1.83;nan;94727.06;5048010;28;20256;-71
2022/03/07 03:54:39;;;;;;;7.73;5.70;;;;;;;1.94;nan;94721.16;5047407;28;20521;-73
2022/03/07 03:57:06;;;;;;;8.67;5.90;;;;;;;1.80;nan;94727.91;5047922;28;20204;-71
2022/03/07 03:59:33;;;;;;;5.90;5.30;;;;;;;1.63;nan;94729.66;5047719;28;20740;-71
2022/03/07 04:02:00;;;;;;;5.87;5.27;;;;;;;1.77;nan;94729.59;5047133;28;20635;-72
2022/03/07 04:04:27;;;;;;;6.63;5.87;;;;;;;1.68;nan;94727.97;5046650;28;20217;-71
2022/03/07 04:06:55;;;;;;;7.00;6.30;;;;;;;1.77;nan;94725.41;5046779;28;20697;-70
2022/03/07 04:09:23;;;;;;;7.13;5.50;;;;;;;2.01;nan;94717.75;5047366;28;20217;-70
2022/03/07 04:11:50;;;;;;;5.83;5.23;;;;;;;2.16;nan;94726.03;5046322;28;21723;-70
2022/03/07 04:14:17;;;;;;;5.80;5.30;;;;;;;2.21;nan;94727.66;5047461;28;20233;-70
2022/03/07 04:16:44;;;;;;;7.60;6.03;;;;;;;1.90;nan;94727.03;5047970;28;20596;-72
2022/03/07 04:19:12;;;;;;;6.57;5.80;;;;;;;1.93;nan;94728.69;5047508;28;20220;-70
2022/03/07 04:21:40;;;;;;;8.07;6.50;;;;;;;1.95;nan;94732.84;5047163;28;20198;-70
2022/03/07 04:24:09;;;;;;;8.07;7.27;;;;;;;1.77;nan;94727.91;5047178;28;20210;-70
2022/03/07 04:26:36;;;;;;;7.10;6.43;;;;;;;1.90;nan;94727.03;5047129;28;20236;-71
2022/03/07 04:29:05;;;;;;;11.10;7.23;;;;;;;2.10;nan;94733.59;5046836;28;20292;-70
2022/03/07 04:31:32;;;;;;;8.90;6.83;;;;;;;1.91;nan;94738.72;5046679;28;20206;-70
2022/03/07 04:33:59;;;;;;;6.50;5.80;;;;;;;1.85;nan;94736.22;5046734;28;20741;-70
2022/03/07 04:36:26;;;;;;;9.10;6.13;;;;;;;1.92;nan;94729.53;5046754;28;20230;-71
2022/03/07 04:38:53;;;;;;;5.20;4.47;;;;;;;1.96;nan;94738.69;5045798;28;20677;-70
2022/03/07 04:41:21;;;;;;;4.93;4.43;;;;;;;2.15;nan;94736.91;5046560;28;20202;-70
2022/03/07 04:43:48;;;;;;;4.47;3.97;;;;;;;2.08;nan;94737.78;5046587;28;20199;-71
2022/03/07 04:46:14;;;;;;;7.97;4.17;;;;;;;1.89;nan;94732.88;5046412;28;20434;-70
2022/03/07 04:48:41;;;;;;;4.57;4.27;;;;;;;1.81;nan;94732.06;5046643;28;20293;-71
2022/03/07 04:51:08;;;;;;;5.67;4.93;;;;;;;1.77;nan;94737.09;5050682;28;20228;-73
2022/03/07 04:53:35;;;;;;;3.93;3.63;;;;;;;1.53;nan;94743.06;5050604;28;20267;-71
2022/03/07 04:56:02;;;;;;;3.90;3.60;;;;;;;1.59;nan;94738.88;5050860;28;20656;-72
2022/03/07 04:58:30;;;;;;;4.87;4.47;;;;;;;1.61;nan;94744.69;5050853;28;20616;-73
2022/03/07 05:00:57;;;;;;;7.97;4.30;;;;;;;1.44;nan;94743.13;5056395;28;20205;-71
2022/03/07 05:03:23;;;;;;;4.30;3.87;;;;;;;1.47;nan;94743.09;5057789;28;20201;-72
2022/03/07 05:05:50;;;;;;;4.40;3.60;;;;;;;1.60;nan;94737.19;5057973;28;20198;-70
2022/03/07 05:08:18;;;;;;;6.40;3.93;;;;;;;1.57;nan;94734.69;5057379;28;20221;-71
2022/03/07 05:10:45;;;;;;;5.23;4.73;;;;;;;1.45;nan;94744.78;5057857;28;20538;-73
2022/03/07 05:13:12;;;;;;;5.33;4.83;;;;;;;1.51;nan;94744.72;5056485;28;21428;-73
2022/03/07 05:15:40;;;;;;;5.07;4.63;;;;;;;1.54;nan;94739.72;5055881;28;20229;-72
2022/03/07 05:18:07;;;;;;;4.27;3.87;;;;;;;1.29;nan;94734.81;5056858;28;20202;-73
2022/03/07 05:20:34;;;;;;;4.03;3.73;;;;;;;1.29;nan;94749.81;5057738;28;20202;-71
2022/03/07 05:23:01;;;;;;;4.47;4.07;;;;;;;1.33;nan;94743.13;5056581;28;20225;-71
2022/03/07 05:25:28;;;;;;;5.00;4.50;;;;;;;1.36;nan;94730.63;5056323;28;20209;-72
2022/03/07 05:27:55;;;;;;;6.40;5.03;;;;;;;1.32;nan;94744.81;5056920;28;20597;-70
2022/03/07 05:30:23;;;;;;;4.83;4.43;;;;;;;1.49;nan;94746.41;5056812;28;20263;-70
2022/03/07 05:32:53;;;;;;;6.50;5.53;;;;;;;1.76;nan;94747.97;5056283;28;20423;-71
2022/03/07 05:35:22;;;;;;;6.73;4.63;;;;;;;1.80;nan;94735.41;5056368;28;20245;-72
2022/03/07 05:37:49;;;;;;;8.13;4.87;;;;;;;1.75;nan;94734.59;5057900;28;20202;-70
2022/03/07 05:40:17;;;;;;;5.40;4.93;;;;;;;1.80;nan;94742.94;5056638;28;20201;-70
2022/03/07 05:42:45;;;;;;;4.93;4.53;;;;;;;1.67;nan;94751.38;5056564;28;20686;-73
2022/03/07 05:45:13;;;;;;;5.60;5.10;;;;;;;1.62;nan;94740.53;5058152;28;20206;-72
2022/03/07 05:47:41;;;;;;;5.23;4.17;;;;;;;1.56;nan;94753.06;5056291;28;20627;-71
2022/03/07 05:50:10;;;;;;;37.27;19.23;;;;;;;1.42;nan;94742.28;5054734;28;20287;-72
2022/03/07 05:52:37;;;;;;;4.73;4.33;;;;;;;1.44;nan;94748.13;5052509;28;20719;-72
2022/03/07 05:55:04;;;;;;;6.70;4.47;;;;;;;1.31;nan;94743.16;5051637;28;20238;-72
2022/03/07 05:57:31;;;;;;;5.03;4.13;;;;;;;1.54;nan;94749.72;5052169;28;20277;-71
2022/03/07 05:59:58;;;;;;;7.37;5.07;;;;;;;1.68;nan;94745.50;5052077;28;20202;-71
2022/03/07 06:02:25;;;;;;;6.80;4.23;;;;;;;1.38;nan;94738.13;5051709;28;20206;-70
2022/03/07 06:04:52;;;;;;;4.07;3.77;;;;;;;1.39;nan;94744.81;5052608;28;20727;-70
2022/03/07 06:07:20;;;;;;;3.80;3.50;;;;;;;1.52;nan;94746.41;5052063;28;20754;-72
2022/03/07 06:09:46;;;;;;;4.73;4.27;;;;;;;1.77;nan;94742.13;5052136;28;21791;-71
2022/03/07 06:12:13;;;;;;;5.93;4.20;;;;;;;1.91;nan;94743.72;5048911;28;20207;-72
2022/03/07 06:14:40;;;;;;;5.43;4.23;;;;;;;1.84;nan;94743.75;5048700;28;20760;-71
2022/03/07 06:17:07;;;;;;;5.63;4.50;;;;;;;1.59;nan;94748.06;5048809;28;20203;-71
2022/03/07 06:19:33;;;;;;;5.40;4.63;;;;;;;1.76;nan;94745.47;5049718;28;20209;-71
2022/03/07 06:22:00;;;;;;;4.50;4.10;;;;;;;1.67;nan;94751.38;5048816;28;20203;-71
2022/03/07 06:24:29;;;;;;;4.27;3.93;;;;;;;1.76;nan;94751.31;5049455;28;20489;-72
2022/03/07 06:26:57;;;;;;;4.97;4.10;;;;;;;1.91;nan;94750.41;5048060;28;20234;-72
2022/03/07 06:29:24;;;;;;;5.03;4.30;;;;;;;1.81;nan;94747.09;5048722;28;20216;-72
2022/03/07 06:31:51;;;;;;;6.13;4.60;;;;;;;1.79;nan;94751.28;5049403;28;20202;-71
2022/03/07 06:34:18;;;;;;;4.83;4.20;;;;;;;1.82;nan;94761.31;5049489;28;20203;-71
2022/03/07 06:36:45;;;;;;;4.80;4.40;;;;;;;2.15;nan;94751.94;5048146;28;20225;-70
2022/03/07 06:39:11;;;;;;;10.10;6.20;;;;;;;1.87;nan;94749.59;5048668;28;20210;-72
2022/03/07 06:41:40;;;;;;;5.47;4.93;;;;;;;2.10;nan;94746.13;5049046;28;20213;-72
2022/03/07 06:44:06;;;;;;;5.47;4.97;;;;;;;2.13;nan;94751.13;5049007;28;20706;-73
2022/03/07 06:46:33;;;;;;;5.37;4.57;;;;;;;2.02;nan;94746.97;5049214;28;20662;-71
2022/03/07 06:49:00;;;;;;;5.10;4.60;;;;;;;1.95;nan;94747.88;5048118;28;20198;-72
2022/03/07 06:51:27;;;;;;;6.80;5.57;;;;;;;2.15;nan;94747.75;5052756;28;20615;-71
2022/03/07 06:53:53;;;;;;;11.33;5.90;;;;;;;2.00;nan;94741.16;5052436;28;20348;-71
2022/03/07 06:56:20;;;;;;;9.27;4.83;;;;;;;1.91;nan;94748.72;5053050;28;22133;-71
2022/03/07 06:58:48;;;;;;;13.00;5.90;;;;;;;2.03;nan;94751.16;5051949;28;20287;-73
2022/03/07 07:01:15;;;;;;;5.87;5.37;;;;;;;1.88;nan;94746.25;5052283;28;20210;-73
2022/03/07 07:03:42;;;;;;;5.60;5.10;;;;;;;2.10;nan;94749.44;5052439;28;20202;-71
2022/03/07 07:06:09;;;;;;;7.03;5.70;;;;;;;2.43;nan;94740.88;5052544;28;20194;-73
2022/03/07 07:08:36;;;;;;;7.60;5.63;;;;;;;2.74;nan;94751.47;5052066;28;20654;-72
2022/03/07 07:11:03;;;;;;;6.27;5.60;;;;;;;2.85;nan;94753.91;5053011;28;20209;-73
2022/03/07 07:13:30;;;;;;;9.97;6.07;;;;;;;2.79;nan;94753.94;5052178;28;20209;-72
2022/03/07 07:15:58;;;;;;;9.27;6.00;;;;;;;3.03;nan;94748.69;5052144;28;20229;-72
2022/03/07 07:18:26;;;;;;;12.37;7.43;;;;;;;3.04;nan;94745.34;5050995;28;21023;-71
2022/03/07 07:20:53;;;;;;;7.43;6.73;;;;;;;3.01;nan;94753.75;5053165;28;20206;-75
2022/03/07 07:23:21;;;;;;;10.27;8.23;;;;;;;3.13;nan;94754.47;5052374;28;20589;-73
2022/03/07 07:25:48;;;;;;;12.43;7.63;;;;;;;3.08;nan;94757.88;5051914;28;20586;-71
2022/03/07 07:28:15;;;;;;;10.53;8.97;;;;;;;3.12;nan;94761.19;5051493;28;20201;-71
2022/03/07 07:30:42;;;;;;;26.40;15.80;;;;;;;3.15;nan;94758.63;5051842;28;20909;-72
2022/03/07 07:33:10;;;;;;;10.10;9.03;;;;;;;3.12;nan;94747.78;5051304;28;20241;-72
2022/03/07 07:35:36;;;;;;;10.93;9.03;;;;;;;3.26;nan;94756.84;5051874;28;20238;-70
2022/03/07 07:38:04;;;;;;;12.17;10.17;;;;;;;3.28;nan;94762.69;5051583;28;20630;-72
2022/03/07 07:40:31;;;;;;;14.87;9.13;;;;;;;3.02;nan;94760.41;5052310;28;20646;-70
2022/03/07 07:42:58;;;;;;;11.17;9.53;;;;;;;2.80;nan;94771.50;5052976;28;20209;-72
2022/03/07 07:45:25;;;;;;;9.93;8.93;;;;;;;2.85;nan;94768.97;5051210;28;20211;-71
2022/03/07 07:47:52;;;;;;;11.63;8.87;;;;;;;2.45;nan;94764.28;5050161;28;20202;-71
2022/03/07 07:50:21;;;;;;;11.33;8.70;;;;;;;2.56;nan;94771.69;5049131;28;20693;-71
2022/03/07 07:52:47;;;;;;;9.67;8.70;;;;;;;2.75;nan;94765.69;5047732;28;20713;-73
2022/03/07 07:55:15;;;;;;;12.30;8.20;;;;;;;2.69;nan;94779.13;5048040;28;20591;-73
2022/03/07 07:57:42;;;;;;;11.27;8.97;;;;;;;2.58;nan;94780.88;5047085;28;21667;-71
2022/03/07 08:00:11;;;;;;;16.87;9.03;;;;;;;2.89;nan;94785.66;5047533;28;20205;-74
2022/03/07 08:02:38;;;;;;;7.53;6.80;;;;;;;2.83;nan;94778.19;5047753;28;20216;-72
2022/03/07 08:05:06;;;;;;;6.40;5.80;;;;;;;2.50;nan;94780.09;5047310;28;20202;-71
2022/03/07 08:07:35;;;;;;;10.07;7.27;;;;;;;2.57;nan;94768.34;5047210;28;20198;-73
2022/03/07 08:10:02;;;;;;;7.87;7.07;;;;;;;2.65;nan;94772.47;5047092;28;20207;-73
2022/03/07 08:12:29;;;;;;;13.27;7.33;;;;;;;2.88;nan;94779.81;5047518;28;20222;-71
2022/03/07 08:14:56;;;;;;;10.10;7.73;;;;;;;2.86;nan;94775.66;5047634;28;20207;-71
2022/03/07 08:17:23;;;;;;;10.40;8.53;;;;;;;2.95;nan;94775.56;5047696;28;20230;-72
2022/03/07 08:19:49;;;;;;;19.47;8.60;;;;;;;2.95;nan;94776.41;5046604;28;20206;-71
2022/03/07 08:22:16;;;;;;;10.93;8.63;;;;;;;2.92;nan;94778.09;5047483;28;20987;-71
2022/03/07 08:24:44;;;;;;;9.60;8.40;;;;;;;2.96;nan;94773.06;5047269;28;20644;-74
2022/03/07 08:27:11;;;;;;;9.67;6.70;;;;;;;2.50;nan;94781.78;5046731;28;20202;-71
2022/03/07 08:29:38;;;;;;;12.60;9.73;;;;;;;2.82;nan;94784.88;5046983;28;20213;-75
2022/03/07 08:32:05;;;;;;;5.70;4.70;;;;;;;2.93;nan;94787.31;5046933;28;20202;-75
2022/03/07 08:34:32;;;;;;;6.57;5.50;;;;;;;2.67;nan;94785.00;5046305;28;20210;-72
2022/03/07 08:36:59;;;;;;;28.17;9.03;;;;;;;3.10;nan;94785.47;5046502;28;20226;-74
2022/03/07 08:39:26;;;;;;;11.03;6.60;;;;;;;2.77;nan;94776.53;5046799;28;20199;-73
2022/03/07 08:41:55;;;;;;;8.47;6.57;;;;;;;2.81;nan;94792.41;5047273;28;20209;-71
2022/03/07 08:44:21;;;;;;;10.97;5.87;;;;;;;2.82;nan;94784.03;5047322;28;20221;-71
2022/03/07 08:46:48;;;;;;;5.43;4.93;;;;;;;2.99;nan;94790.56;5046908;28;20649;-72
2022/03/07 08:49:15;;;;;;;6.70;5.43;;;;;;;3.16;nan;94790.44;5046496;28;20808;-72
2022/03/07 08:51:43;;;;;;;8.70;5.33;;;;;;;3.18;nan;94792.94;5046884;28;20202;-71
2022/03/07 08:54:10;;;;;;;9.97;6.43;;;;;;;3.32;nan;94786.91;5046426;28;20611;-71
2022/03/07 08:56:37;;;;;;;20.13;11.53;;;;;;;3.26;nan;94791.16;5046995;28;20794;-72
2022/03/07 08:59:06;;;;;;;15.43;9.43;;;;;;;3.33;nan;94787.75;5046386;28;20202;-73
2022/03/07 09:01:32;;;;;;;15.07;6.53;;;;;;;3.45;nan;94791.81;5047025;28;20216;-73
2022/03/07 09:03:59;;;;;;;25.37;9.90;;;;;;;3.27;nan;94778.59;5046577;28;20202;-71
2022/03/07 09:06:26;;;;;;;11.90;8.23;;;;;;;3.32;nan;94786.91;5046927;28;20738;-71
2022/03/07 09:08:53;;;;;;;20.63;9.70;;;;;;;3.54;nan;94787.50;5045770;28;20275;-71
2022/03/07 09:11:19;;;;;;;15.30;9.03;;;;;;;3.34;nan;94787.72;5046337;28;20600;-71
2022/03/07 09:13:46;;;;;;;9.47;7.53;;;;;;;3.54;nan;94792.53;5047045;28;20288;-71
2022/03/07 09:16:15;;;;;;;8.93;6.77;;;;;;;3.70;nan;94791.53;5046761;28;20593;-71
2022/03/07 09:18:42;;;;;;;7.90;6.30;;;;;;;3.53;nan;94787.53;5046009;28;20296;-72
2022/03/07 09:21:09;;;;;;;8.67;6.93;;;;;;;3.51;nan;94787.53;5046811;28;20206;-73
2022/03/07 09:23:37;;;;;;;6.80;5.83;;;;;;;3.14;nan;94787.09;5046237;28;20220;-71
2022/03/07 09:26:05;;;;;;;9.07;6.13;;;;;;;3.33;nan;94781.03;5045628;28;20681;-71
2022/03/07 09:28:33;;;;;;;10.27;5.53;;;;;;;3.53;nan;94782.50;5045217;28;20731;-71
2022/03/07 09:31:00;;;;;;;6.43;5.30;;;;;;;3.69;nan;94786.53;5045890;28;21052;-71
2022/03/07 09:33:28;;;;;;;5.47;4.97;;;;;;;3.83;nan;94774.63;5046220;28;20209;-70
2022/03/07 09:35:55;;;;;;;6.97;5.23;;;;;;;3.82;nan;94777.97;5045786;28;20235;-71
2022/03/07 09:38:22;;;;;;;7.90;5.43;;;;;;;3.62;nan;94764.81;5045967;28;20202;-70
2022/03/07 09:40:49;;;;;;;4.97;4.57;;;;;;;3.96;nan;94760.22;5045720;28;20243;-70
2022/03/07 09:43:16;;;;;;;5.30;4.83;;;;;;;4.12;nan;94771.72;5045880;28;20272;-70
2022/03/07 09:45:43;;;;;;;7.77;5.37;;;;;;;4.16;nan;94768.34;5046856;28;20198;-71
2022/03/07 09:48:12;;;;;;;6.30;5.23;;;;;;;3.99;nan;94765.19;5049815;28;20206;-72
2022/03/07 09:50:41;;;;;;;4.40;4.03;;;;;;;3.89;nan;94769.53;5049204;28;20238;-72
2022/03/07 09:53:09;;;;;;;4.55;4.15;;;;;;;3.87;nan;94771.22;5049285;28;20238;-71
2022/03/07 09:55:37;;;;;;;6.03;5.43;;;;;;;3.95;nan;94764.44;5049221;28;20309;-74
2022/03/07 09:58:05;;;;;;;7.40;5.97;;;;;;;4.16;nan;94764.97;5049152;28;20371;-70
2022/03/07 10:00:33;;;;;;;5.93;5.47;;;;;;;4.07;nan;94764.25;5049787;28;20971;-72
2022/03/07 10:03:04;;;;;;;6.00;5.50;;;;;;;4.30;nan;94763.09;5048952;28;20213;-73
2022/03/07 10:05:35;;;;;;;5.60;4.93;;;;;;;4.59;nan;94763.50;5049925;28;20194;-71
2022/03/07 10:08:04;;;;;;;6.90;4.93;;;;;;;4.54;nan;94766.94;5048942;28;20272;-72
2022/03/07 10:10:32;;;;;;;6.72;5.68;;;;;;;4.55;nan;94768.59;5046833;28;20213;-71
2022/03/07 10:13:05;;;;;;;4.95;4.50;;;;;;;4.26;nan;94763.97;5049756;28;20549;-72
2022/03/07 10:15:32;;;;;;;6.90;4.90;;;;;;;4.24;nan;94773.22;5049576;28;20790;-73
2022/03/07 10:17:59;;;;;;;5.57;4.80;;;;;;;4.45;nan;94765.41;5049345;28;20367;-72
2022/03/07 10:20:27;;;;;;;7.10;4.33;;;;;;;4.30;nan;94773.16;5049878;28;20217;-72
2022/03/07 10:22:56;;;;;;;6.43;4.78;;;;;;;4.28;nan;94769.81;5050255;28;20203;-71
2022/03/07 10:25:26;;;;;;;6.13;5.40;;;;;;;4.07;nan;94769.28;5049582;28;20767;-71
2022/03/07 10:27:54;;;;;;;7.43;6.70;;;;;;;4.10;nan;94773.44;5049141;28;20204;-72
2022/03/07 10:30:22;;;;;;;10.23;8.10;;;;;;;4.18;nan;94769.16;5049521;28;20199;-74
2022/03/07 10:32:55;;;;;;;7.47;6.07;;;;;;;4.15;nan;94753.25;5049557;28;20666;-72
2022/03/07 10:35:25;;;;;;;13.07;7.45;;;;;;;4.12;nan;94758.31;5049682;28;20195;-71
2022/03/07 10:37:56;;;;;;;8.70;7.65;;;;;;;4.39;nan;94760.47;5048941;28;20252;-71
2022/03/07 10:40:25;;;;;;;7.13;6.40;;;;;;;4.41;nan;94761.28;5050036;28;20572;-72
2022/03/07 10:42:53;;;;;;;6.47;5.80;;;;;;;4.40;nan;94757.09;5049778;28;20199;-72
2022/03/07 10:45:20;;;;;;;7.53;6.45;;;;;;;4.05;nan;94760.09;5049639;28;20203;-71
2022/03/07 10:47:52;;;;;;;6.70;5.97;;;;;;;4.13;nan;94758.31;5049491;28;20203;-72
2022/03/07 10:50:21;;;;;;;7.75;6.47;;;;;;;4.27;nan;94763.13;5050633;28;20302;-72
2022/03/07 10:52:48;;;;;;;9.20;7.00;;;;;;;4.00;nan;94760.13;5053144;28;20229;-72
2022/03/07 10:55:15;;;;;;;9.80;7.07;;;;;;;3.82;nan;94754.53;5052522;28;20716;-72
2022/03/07 10:57:43;;;;;;;15.97;11.30;;;;;;;4.06;nan;94757.56;5050705;28;20234;-71
2022/03/07 11:00:13;;;;;;;20.60;12.43;;;;;;;3.92;nan;94753.56;5051419;28;20693;-71
2022/03/07 11:02:42;;;;;;;12.27;8.80;;;;;;;3.87;nan;94755.31;5051850;28;20205;-71
2022/03/07 11:05:09;;;;;;;13.50;8.30;;;;;;;4.00;nan;94747.56;5051690;28;20268;-73
2022/03/07 11:07:39;;;;;;;9.37;7.33;;;;;;;4.24;nan;94748.09;5051770;28;20621;-74
2022/03/07 11:10:08;;;;;;;9.00;8.10;;;;;;;4.33;nan;94747.97;5050953;28;20198;-71
2022/03/07 11:12:35;;;;;;;8.97;7.40;;;;;;;4.41;nan;94741.97;5049710;28;20222;-71
2022/03/07 11:15:09;;;;;;;18.65;12.45;;;;;;;4.24;nan;94745.56;5051127;28;20198;-72
2022/03/07 11:17:39;;;;;;;19.33;11.03;;;;;;;4.19;nan;94739.78;5051797;28;20234;-71
2022/03/07 11:20:08;;;;;;;10.93;8.67;;;;;;;4.21;nan;94746.44;5050297;28;20284;-72
2022/03/07 11:22:35;;;;;;;12.17;9.83;;;;;;;4.25;nan;94747.22;5051132;28;20301;-72
2022/03/07 11:25:04;;;;;;;13.67;9.47;;;;;;;4.28;nan;94742.16;5052031;28;20896;-70
2022/03/07 11:27:32;;;;;;;13.90;9.37;;;;;;;4.23;nan;94742.22;5051466;28;20190;-71
2022/03/07 11:29:59;;;;;;;11.20;8.73;;;;;;;4.36;nan;94735.34;5051004;28;20284;-71
2022/03/07 11:32:38;;;;;;;8.90;6.40;;;;;;;4.29;nan;94738.78;5051066;28;20199;-72
2022/03/07 11:35:05;;;;;;;9.50;6.97;;;;;;;4.26;nan;94732.13;5051551;28;20201;-72
2022/03/07 11:37:34;;;;;;;8.50;7.27;;;;;;;4.23;nan;94736.34;5051425;28;20237;-72
2022/03/07 11:40:01;;;;;;;8.02;7.22;;;;;;;4.10;nan;94739.06;5051544;28;20206;-73
2022/03/07 11:42:37;;;;;;;8.17;7.10;;;;;;;4.28;nan;94727.06;5051416;28;20198;-72
2022/03/07 11:45:06;;;;;;;18.30;11.73;;;;;;;4.47;nan;94718.38;5050934;28;20455;-74
2022/03/07 11:47:40;;;;;;;11.07;7.90;;;;;;;4.52;nan;94725.88;5050202;28;20631;-71
2022/03/07 11:50:08;;;;;;;10.30;8.07;;;;;;;4.49;nan;94716.69;5048232;28;20230;-71
2022/03/07 11:52:35;;;;;;;22.13;15.47;;;;;;;4.34;nan;94710.22;5047728;28;20198;-73
2022/03/07 11:55:08;;;;;;;11.90;9.33;;;;;;;4.49;nan;94720.88;5048357;28;20797;-73
2022/03/07 11:57:36;;;;;;;9.57;7.10;;;;;;;4.32;nan;94709.41;5047420;28;20729;-72